sensor_id;sensor_type;location;lat;lon;timestamp;pressure;altitude;pressure_sealevel;temperature;humidity
35507;BME280;36461;52.018;21.036;2023-12-28T00:00:30;100718.73;;;0.20;87.87
35507;BME280;36461;52.018;21.036;2023-12-28T00:03:18;100700.92;;;0.13;87.60
35507;BME280;36461;52.018;21.036;2023-12-28T00:05:46;100697.61;;;0.09;87.71
35507;BME280;36461;52.018;21.036;2023-12-28T00:08:14;100697.73;;;0.05;87.98
35507;BME280;36461;52.018;21.036;2023-12-28T00:10:42;100704.71;;;0.05;88.06
35507;BME280;36461;52.018;21.036;2023-12-28T00:13:10;100711.15;;;0.03;88.34
35507;BME280;36461;52.018;21.036;2023-12-28T00:15:38;100700.77;;;0.04;88.34
35507;BME280;36461;52.018;21.036;2023-12-28T00:18:06;100692.64;;;0.04;88.65
35507;BME280;36461;52.018;21.036;2023-12-28T00:20:34;100686.00;;;0.05;88.60
35507;BME280;36461;52.018;21.036;2023-12-28T00:23:02;100678.00;;;0.05;88.53
35507;BME280;36461;52.018;21.036;2023-12-28T00:25:30;100668.15;;;0.06;88.64
35507;BME280;36461;52.018;21.036;2023-12-28T00:27:58;100665.25;;;0.06;88.21
35507;BME280;36461;52.018;21.036;2023-12-28T00:30:26;100663.40;;;0.07;88.74
35507;BME280;36461;52.018;21.036;2023-12-28T00:32:54;100675.15;;;0.08;88.54
35507;BME280;36461;52.018;21.036;2023-12-28T00:35:22;100686.36;;;0.07;88.56
35507;BME280;36461;52.018;21.036;2023-12-28T00:37:50;100685.19;;;0.08;88.87
35507;BME280;36461;52.018;21.036;2023-12-28T00:40:18;100682.48;;;0.08;88.76
35507;BME280;36461;52.018;21.036;2023-12-28T00:42:46;100681.60;;;0.07;88.74
35507;BME280;36461;52.018;21.036;2023-12-28T00:45:14;100680.71;;;0.05;88.90
35507;BME280;36461;52.018;21.036;2023-12-28T00:47:42;100680.52;;;0.03;88.64
35507;BME280;36461;52.018;21.036;2023-12-28T00:50:11;100672.52;;;0.03;88.50
35507;BME280;36461;52.018;21.036;2023-12-28T00:52:45;100672.36;;;0.03;88.56
35507;BME280;36461;52.018;21.036;2023-12-28T00:55:13;100671.36;;;0.05;88.84
35507;BME280;36461;52.018;21.036;2023-12-28T00:57:41;100666.08;;;0.05;88.48
35507;BME280;36461;52.018;21.036;2023-12-28T01:00:09;100669.95;;;0.02;88.46
35507;BME280;36461;52.018;21.036;2023-12-28T01:02:38;100665.16;;;0.00;88.75
35507;BME280;36461;52.018;21.036;2023-12-28T01:05:06;100657.27;;;-0.05;88.47
35507;BME280;36461;52.018;21.036;2023-12-28T01:07:34;100654.63;;;-0.10;88.54
35507;BME280;36461;52.018;21.036;2023-12-28T01:10:02;100652.69;;;-0.15;88.72
35507;BME280;36461;52.018;21.036;2023-12-28T01:12:30;100654.00;;;-0.17;88.70
35507;BME280;36461;52.018;21.036;2023-12-28T01:14:59;100647.45;;;-0.23;88.83
35507;BME280;36461;52.018;21.036;2023-12-28T01:17:28;100635.29;;;-0.28;88.82
35507;BME280;36461;52.018;21.036;2023-12-28T01:19:56;100623.66;;;-0.32;88.68
35507;BME280;36461;52.018;21.036;2023-12-28T01:22:24;100622.92;;;-0.36;89.18
35507;BME280;36461;52.018;21.036;2023-12-28T01:24:52;100622.77;;;-0.35;89.38
35507;BME280;36461;52.018;21.036;2023-12-28T01:27:20;100627.86;;;-0.35;89.35
35507;BME280;36461;52.018;21.036;2023-12-28T01:33:50;100618.34;;;-0.35;89.47
35507;BME280;36461;52.018;21.036;2023-12-28T01:36:20;100615.80;;;-0.34;89.71
35507;BME280;36461;52.018;21.036;2023-12-28T01:38:48;100615.29;;;-0.35;89.62
35507;BME280;36461;52.018;21.036;2023-12-28T01:41:17;100606.99;;;-0.32;89.88
35507;BME280;36461;52.018;21.036;2023-12-28T01:43:45;100599.34;;;-0.32;89.78
35507;BME280;36461;52.018;21.036;2023-12-28T01:46:17;100596.77;;;-0.33;89.89
35507;BME280;36461;52.018;21.036;2023-12-28T01:48:48;100594.05;;;-0.33;89.70
35507;BME280;36461;52.018;21.036;2023-12-28T01:51:17;100592.21;;;-0.32;89.97
35507;BME280;36461;52.018;21.036;2023-12-28T01:53:48;100585.62;;;-0.29;90.02
35507;BME280;36461;52.018;21.036;2023-12-28T01:56:18;100578.69;;;-0.26;90.20
35507;BME280;36461;52.018;21.036;2023-12-28T01:58:48;100583.33;;;-0.23;89.98
35507;BME280;36461;52.018;21.036;2023-12-28T02:01:17;100579.83;;;-0.18;90.18
35507;BME280;36461;52.018;21.036;2023-12-28T02:03:46;100572.42;;;-0.12;90.50
35507;BME280;36461;52.018;21.036;2023-12-28T02:06:14;100566.73;;;-0.07;90.62
35507;BME280;36461;52.018;21.036;2023-12-28T02:08:48;100564.93;;;-0.02;90.60
35507;BME280;36461;52.018;21.036;2023-12-28T02:11:17;100556.49;;;0.04;90.66
35507;BME280;36461;52.018;21.036;2023-12-28T02:13:46;100541.06;;;0.09;90.44
35507;BME280;36461;52.018;21.036;2023-12-28T02:16:29;100535.36;;;0.15;90.70
35507;BME280;36461;52.018;21.036;2023-12-28T02:19:04;100526.92;;;0.20;90.63
35507;BME280;36461;52.018;21.036;2023-12-28T02:21:40;100513.02;;;0.26;90.62
35507;BME280;36461;52.018;21.036;2023-12-28T02:24:09;100502.02;;;0.30;90.61
35507;BME280;36461;52.018;21.036;2023-12-28T02:26:38;100497.67;;;0.37;90.62
35507;BME280;36461;52.018;21.036;2023-12-28T02:29:06;100493.30;;;0.42;90.24
35507;BME280;36461;52.018;21.036;2023-12-28T02:31:41;100492.17;;;0.47;90.43
35507;BME280;36461;52.018;21.036;2023-12-28T02:34:15;100480.77;;;0.49;90.01
35507;BME280;36461;52.018;21.036;2023-12-28T02:36:46;100474.27;;;0.46;90.15
35507;BME280;36461;52.018;21.036;2023-12-28T02:39:16;100470.96;;;0.40;89.86
35507;BME280;36461;52.018;21.036;2023-12-28T02:41:45;100474.14;;;0.33;89.82
35507;BME280;36461;52.018;21.036;2023-12-28T02:44:14;100473.63;;;0.34;89.70
35507;BME280;36461;52.018;21.036;2023-12-28T02:46:42;100480.77;;;0.34;89.77
35507;BME280;36461;52.018;21.036;2023-12-28T02:49:11;100476.23;;;0.39;90.23
35507;BME280;36461;52.018;21.036;2023-12-28T02:51:40;100466.93;;;0.43;90.19
35507;BME280;36461;52.018;21.036;2023-12-28T02:54:10;100461.33;;;0.45;90.15
35507;BME280;36461;52.018;21.036;2023-12-28T02:56:40;100460.35;;;0.50;90.16
35507;BME280;36461;52.018;21.036;2023-12-28T02:59:10;100464.65;;;0.55;89.86
35507;BME280;36461;52.018;21.036;2023-12-28T03:01:38;100452.92;;;0.57;89.74
35507;BME280;36461;52.018;21.036;2023-12-28T03:04:08;100449.36;;;0.58;89.63
35507;BME280;36461;52.018;21.036;2023-12-28T03:06:37;100442.92;;;0.61;89.91
35507;BME280;36461;52.018;21.036;2023-12-28T03:09:08;100438.67;;;0.62;89.55
35507;BME280;36461;52.018;21.036;2023-12-28T03:11:36;100441.70;;;0.59;89.38
35507;BME280;36461;52.018;21.036;2023-12-28T03:14:04;100441.81;;;0.52;89.33
35507;BME280;36461;52.018;21.036;2023-12-28T03:16:32;100439.54;;;0.46;89.07
35507;BME280;36461;52.018;21.036;2023-12-28T03:19:02;100437.79;;;0.41;89.18
35507;BME280;36461;52.018;21.036;2023-12-28T03:21:30;100436.87;;;0.35;88.83
35507;BME280;36461;52.018;21.036;2023-12-28T03:23:58;100436.84;;;0.32;89.04
35507;BME280;36461;52.018;21.036;2023-12-28T03:26:27;100432.55;;;0.29;89.18
35507;BME280;36461;52.018;21.036;2023-12-28T03:28:56;100425.00;;;0.23;89.14
35507;BME280;36461;52.018;21.036;2023-12-28T03:31:24;100418.80;;;0.15;89.19
35507;BME280;36461;52.018;21.036;2023-12-28T03:33:53;100414.46;;;0.08;89.11
35507;BME280;36461;52.018;21.036;2023-12-28T03:36:21;100417.13;;;0.03;89.52
35507;BME280;36461;52.018;21.036;2023-12-28T03:38:53;100412.34;;;0.00;89.44
35507;BME280;36461;52.018;21.036;2023-12-28T03:41:21;100415.70;;;-0.03;89.64
35507;BME280;36461;52.018;21.036;2023-12-28T03:43:50;100410.73;;;-0.06;89.48
35507;BME280;36461;52.018;21.036;2023-12-28T03:46:18;100407.98;;;-0.08;89.53
35507;BME280;36461;52.018;21.036;2023-12-28T03:48:46;100398.92;;;-0.11;89.49
35507;BME280;36461;52.018;21.036;2023-12-28T03:51:16;100390.58;;;-0.13;89.83
35507;BME280;36461;52.018;21.036;2023-12-28T03:53:44;100386.31;;;-0.14;89.84
35507;BME280;36461;52.018;21.036;2023-12-28T03:56:21;100381.36;;;-0.16;89.64
35507;BME280;36461;52.018;21.036;2023-12-28T03:58:50;100376.89;;;-0.19;89.72
35507;BME280;36461;52.018;21.036;2023-12-28T04:01:22;100373.16;;;-0.18;89.97
35507;BME280;36461;52.018;21.036;2023-12-28T04:03:51;100367.20;;;-0.18;89.91
35507;BME280;36461;52.018;21.036;2023-12-28T04:06:19;100365.00;;;-0.18;90.00
35507;BME280;36461;52.018;21.036;2023-12-28T04:08:47;100360.08;;;-0.17;90.00
35507;BME280;36461;52.018;21.036;2023-12-28T04:11:15;100350.54;;;-0.19;89.83
35507;BME280;36461;52.018;21.036;2023-12-28T04:13:44;100341.15;;;-0.22;89.77
35507;BME280;36461;52.018;21.036;2023-12-28T04:16:15;100345.39;;;-0.23;89.79
35507;BME280;36461;52.018;21.036;2023-12-28T04:18:43;100346.23;;;-0.24;89.59
35507;BME280;36461;52.018;21.036;2023-12-28T04:21:13;100339.92;;;-0.25;89.63
35507;BME280;36461;52.018;21.036;2023-12-28T04:23:42;100333.45;;;-0.25;89.87
35507;BME280;36461;52.018;21.036;2023-12-28T04:26:10;100326.33;;;-0.24;89.88
35507;BME280;36461;52.018;21.036;2023-12-28T04:28:39;100320.72;;;-0.24;89.83
35507;BME280;36461;52.018;21.036;2023-12-28T04:31:07;100314.41;;;-0.25;89.88
35507;BME280;36461;52.018;21.036;2023-12-28T04:33:36;100309.65;;;-0.25;89.91
35507;BME280;36461;52.018;21.036;2023-12-28T04:36:05;100306.54;;;-0.30;89.80
35507;BME280;36461;52.018;21.036;2023-12-28T04:38:34;100300.20;;;-0.34;89.60
35507;BME280;36461;52.018;21.036;2023-12-28T04:41:02;100299.48;;;-0.37;89.74
35507;BME280;36461;52.018;21.036;2023-12-28T04:43:31;100297.92;;;-0.40;89.43
35507;BME280;36461;52.018;21.036;2023-12-28T04:46:03;100302.64;;;-0.44;89.62
35507;BME280;36461;52.018;21.036;2023-12-28T04:48:32;100300.26;;;-0.44;89.63
35507;BME280;36461;52.018;21.036;2023-12-28T04:51:04;100295.31;;;-0.45;89.69
35507;BME280;36461;52.018;21.036;2023-12-28T04:53:32;100297.52;;;-0.47;89.58
35507;BME280;36461;52.018;21.036;2023-12-28T04:56:01;100291.70;;;-0.49;89.60
35507;BME280;36461;52.018;21.036;2023-12-28T04:58:30;100284.03;;;-0.52;89.73
35507;BME280;36461;52.018;21.036;2023-12-28T05:00:58;100283.33;;;-0.53;89.53
35507;BME280;36461;52.018;21.036;2023-12-28T05:03:26;100280.27;;;-0.53;89.59
35507;BME280;36461;52.018;21.036;2023-12-28T05:05:55;100275.34;;;-0.54;89.90
35507;BME280;36461;52.018;21.036;2023-12-28T05:08:23;100267.86;;;-0.54;89.72
35507;BME280;36461;52.018;21.036;2023-12-28T05:10:51;100265.15;;;-0.53;89.77
35507;BME280;36461;52.018;21.036;2023-12-28T05:13:19;100252.42;;;-0.50;89.73
35507;BME280;36461;52.018;21.036;2023-12-28T05:15:47;100253.29;;;-0.48;89.88
35507;BME280;36461;52.018;21.036;2023-12-28T05:18:15;100245.00;;;-0.44;89.96
35507;BME280;36461;52.018;21.036;2023-12-28T05:20:43;100239.95;;;-0.40;89.84
35507;BME280;36461;52.018;21.036;2023-12-28T05:23:11;100238.77;;;-0.39;89.60
35507;BME280;36461;52.018;21.036;2023-12-28T05:25:39;100241.19;;;-0.36;89.38
35507;BME280;36461;52.018;21.036;2023-12-28T05:28:07;100241.70;;;-0.34;89.61
35507;BME280;36461;52.018;21.036;2023-12-28T05:30:35;100233.90;;;-0.32;89.38
35507;BME280;36461;52.018;21.036;2023-12-28T05:33:04;100226.93;;;-0.32;89.10
35507;BME280;36461;52.018;21.036;2023-12-28T05:35:32;100227.10;;;-0.32;89.12
35507;BME280;36461;52.018;21.036;2023-12-28T05:38:00;100219.30;;;-0.30;89.07
35507;BME280;36461;52.018;21.036;2023-12-28T05:40:28;100216.26;;;-0.28;89.24
35507;BME280;36461;52.018;21.036;2023-12-28T05:42:56;100204.36;;;-0.27;89.35
35507;BME280;36461;52.018;21.036;2023-12-28T05:45:24;100195.16;;;-0.28;89.27
35507;BME280;36461;52.018;21.036;2023-12-28T05:47:52;100181.23;;;-0.29;89.08
35507;BME280;36461;52.018;21.036;2023-12-28T05:50:20;100175.77;;;-0.30;89.15
35507;BME280;36461;52.018;21.036;2023-12-28T05:52:48;100178.98;;;-0.31;89.10
35507;BME280;36461;52.018;21.036;2023-12-28T05:55:16;100176.77;;;-0.33;88.98
35507;BME280;36461;52.018;21.036;2023-12-28T05:57:44;100178.30;;;-0.33;88.88
35507;BME280;36461;52.018;21.036;2023-12-28T06:00:13;100167.09;;;-0.31;89.03
35507;BME280;36461;52.018;21.036;2023-12-28T06:02:42;100163.67;;;-0.31;88.87
35507;BME280;36461;52.018;21.036;2023-12-28T06:05:10;100159.77;;;-0.31;88.89
35507;BME280;36461;52.018;21.036;2023-12-28T06:07:38;100158.27;;;-0.29;89.23
35507;BME280;36461;52.018;21.036;2023-12-28T06:10:07;100161.48;;;-0.29;88.85
35507;BME280;36461;52.018;21.036;2023-12-28T06:12:35;100169.66;;;-0.29;89.11
35507;BME280;36461;52.018;21.036;2023-12-28T06:15:04;100174.44;;;-0.28;89.14
35507;BME280;36461;52.018;21.036;2023-12-28T06:17:32;100175.64;;;-0.27;88.98
35507;BME280;36461;52.018;21.036;2023-12-28T06:20:02;100171.38;;;-0.27;88.81
35507;BME280;36461;52.018;21.036;2023-12-28T06:22:30;100173.77;;;-0.26;88.75
35507;BME280;36461;52.018;21.036;2023-12-28T06:24:58;100169.67;;;-0.27;89.09
35507;BME280;36461;52.018;21.036;2023-12-28T06:27:27;100164.08;;;-0.26;88.90
35507;BME280;36461;52.018;21.036;2023-12-28T06:29:55;100164.06;;;-0.27;89.01
35507;BME280;36461;52.018;21.036;2023-12-28T06:32:23;100165.59;;;-0.28;88.69
35507;BME280;36461;52.018;21.036;2023-12-28T06:34:52;100167.30;;;-0.27;88.97
35507;BME280;36461;52.018;21.036;2023-12-28T06:37:20;100165.42;;;-0.26;88.96
35507;BME280;36461;52.018;21.036;2023-12-28T06:39:48;100162.19;;;-0.27;88.97
35507;BME280;36461;52.018;21.036;2023-12-28T06:42:16;100160.66;;;-0.26;89.49
35507;BME280;36461;52.018;21.036;2023-12-28T06:44:44;100163.73;;;-0.26;89.28
35507;BME280;36461;52.018;21.036;2023-12-28T06:47:12;100178.88;;;-0.25;89.45
35507;BME280;36461;52.018;21.036;2023-12-28T06:49:40;100188.27;;;-0.21;89.41
35507;BME280;36461;52.018;21.036;2023-12-28T06:52:09;100188.96;;;-0.18;89.50
35507;BME280;36461;52.018;21.036;2023-12-28T06:54:37;100180.63;;;-0.18;89.45
35507;BME280;36461;52.018;21.036;2023-12-28T06:57:05;100171.28;;;-0.18;89.47
35507;BME280;36461;52.018;21.036;2023-12-28T06:59:32;100165.87;;;-0.15;89.17
35507;BME280;36461;52.018;21.036;2023-12-28T07:02:00;100165.88;;;-0.13;89.50
35507;BME280;36461;52.018;21.036;2023-12-28T07:04:28;100166.41;;;-0.09;89.45
35507;BME280;36461;52.018;21.036;2023-12-28T07:06:57;100161.68;;;-0.05;89.37
35507;BME280;36461;52.018;21.036;2023-12-28T07:09:25;100154.03;;;-0.05;89.05
35507;BME280;36461;52.018;21.036;2023-12-28T07:11:53;100155.73;;;-0.05;88.72
35507;BME280;36461;52.018;21.036;2023-12-28T07:14:21;100163.39;;;-0.03;88.89
35507;BME280;36461;52.018;21.036;2023-12-28T07:16:49;100154.92;;;0.01;89.35
35507;BME280;36461;52.018;21.036;2023-12-28T07:19:17;100148.98;;;0.06;89.36
35507;BME280;36461;52.018;21.036;2023-12-28T07:21:45;100142.05;;;0.10;89.15
35507;BME280;36461;52.018;21.036;2023-12-28T07:24:13;100134.73;;;0.11;89.18
35507;BME280;36461;52.018;21.036;2023-12-28T07:26:41;100135.10;;;0.14;89.19
35507;BME280;36461;52.018;21.036;2023-12-28T07:33:58;100139.27;;;0.29;88.92
35507;BME280;36461;52.018;21.036;2023-12-28T07:36:27;100136.59;;;0.35;89.33
35507;BME280;36461;52.018;21.036;2023-12-28T07:38:55;100140.02;;;0.40;89.22
35507;BME280;36461;52.018;21.036;2023-12-28T07:45:57;100123.73;;;0.53;89.40
35507;BME280;36461;52.018;21.036;2023-12-28T07:48:25;100114.41;;;0.60;89.39
35507;BME280;36461;52.018;21.036;2023-12-28T07:50:53;100119.20;;;0.66;89.23
35507;BME280;36461;52.018;21.036;2023-12-28T07:53:21;100125.71;;;0.75;89.31
35507;BME280;36461;52.018;21.036;2023-12-28T08:00:24;100106.73;;;1.06;89.27
35507;BME280;36461;52.018;21.036;2023-12-28T08:07:27;100103.86;;;1.33;89.45
35507;BME280;36461;52.018;21.036;2023-12-28T08:09:55;100121.77;;;1.43;89.13
35507;BME280;36461;52.018;21.036;2023-12-28T08:12:23;100134.39;;;1.53;89.06
35507;BME280;36461;52.018;21.036;2023-12-28T08:14:52;100153.16;;;1.63;89.19
35507;BME280;36461;52.018;21.036;2023-12-28T08:17:20;100159.98;;;1.71;88.76
35507;BME280;36461;52.018;21.036;2023-12-28T08:19:48;100153.50;;;1.73;88.75
35507;BME280;36461;52.018;21.036;2023-12-28T08:22:17;100148.22;;;1.82;88.98
35507;BME280;36461;52.018;21.036;2023-12-28T08:24:45;100152.14;;;1.97;89.29
35507;BME280;36461;52.018;21.036;2023-12-28T08:27:13;100155.52;;;2.11;88.93
35507;BME280;36461;52.018;21.036;2023-12-28T08:29:41;100150.05;;;2.25;89.06
35507;BME280;36461;52.018;21.036;2023-12-28T08:32:10;100146.45;;;2.37;89.06
35507;BME280;36461;52.018;21.036;2023-12-28T08:34:39;100142.46;;;2.53;89.16
35507;BME280;36461;52.018;21.036;2023-12-28T08:37:07;100121.90;;;2.69;89.21
35507;BME280;36461;52.018;21.036;2023-12-28T08:39:35;100107.66;;;2.82;88.84
35507;BME280;36461;52.018;21.036;2023-12-28T08:42:03;100106.05;;;2.99;88.86
35507;BME280;36461;52.018;21.036;2023-12-28T08:44:31;100095.35;;;3.13;88.85
35507;BME280;36461;52.018;21.036;2023-12-28T08:47:00;100096.31;;;3.25;88.53
35507;BME280;36461;52.018;21.036;2023-12-28T08:49:29;100093.64;;;3.38;88.46
35507;BME280;36461;52.018;21.036;2023-12-28T08:51:57;100097.45;;;3.54;88.27
35507;BME280;36461;52.018;21.036;2023-12-28T08:54:26;100094.60;;;3.69;88.10
35507;BME280;36461;52.018;21.036;2023-12-28T08:56:53;100097.04;;;3.84;87.95
35507;BME280;36461;52.018;21.036;2023-12-28T08:59:26;100100.83;;;3.99;87.80
35507;BME280;36461;52.018;21.036;2023-12-28T09:01:54;100100.01;;;4.13;87.61
35507;BME280;36461;52.018;21.036;2023-12-28T09:04:22;100100.40;;;4.24;87.57
35507;BME280;36461;52.018;21.036;2023-12-28T09:06:51;100090.53;;;4.34;87.33
35507;BME280;36461;52.018;21.036;2023-12-28T09:09:19;100082.88;;;4.45;86.94
35507;BME280;36461;52.018;21.036;2023-12-28T09:11:47;100078.58;;;4.60;86.99
35507;BME280;36461;52.018;21.036;2023-12-28T09:14:15;100077.35;;;4.75;86.63
35507;BME280;36461;52.018;21.036;2023-12-28T09:16:43;100082.13;;;4.89;86.53
35507;BME280;36461;52.018;21.036;2023-12-28T09:19:13;100071.31;;;5.03;86.52
35507;BME280;36461;52.018;21.036;2023-12-28T09:21:42;100064.77;;;5.14;86.05
35507;BME280;36461;52.018;21.036;2023-12-28T09:24:10;100077.13;;;5.27;86.20
35507;BME280;36461;52.018;21.036;2023-12-28T09:26:39;100077.10;;;5.40;85.92
35507;BME280;36461;52.018;21.036;2023-12-28T09:29:07;100073.11;;;5.52;85.60
35507;BME280;36461;52.018;21.036;2023-12-28T09:31:35;100070.04;;;5.62;84.99
35507;BME280;36461;52.018;21.036;2023-12-28T09:34:03;100070.73;;;5.72;84.82
35507;BME280;36461;52.018;21.036;2023-12-28T09:36:32;100069.02;;;5.81;84.55
35507;BME280;36461;52.018;21.036;2023-12-28T09:39:00;100071.12;;;5.89;84.14
35507;BME280;36461;52.018;21.036;2023-12-28T09:41:30;100071.15;;;5.98;84.07
35507;BME280;36461;52.018;21.036;2023-12-28T09:44:11;100071.52;;;6.06;83.22
35507;BME280;36461;52.018;21.036;2023-12-28T09:46:43;100073.92;;;6.16;83.42
35507;BME280;36461;52.018;21.036;2023-12-28T09:49:12;100065.15;;;6.26;82.83
35507;BME280;36461;52.018;21.036;2023-12-28T09:51:40;100063.29;;;6.32;82.64
35507;BME280;36461;52.018;21.036;2023-12-28T09:54:08;100062.17;;;6.37;82.37
35507;BME280;36461;52.018;21.036;2023-12-28T09:56:37;100055.02;;;6.43;82.45
35507;BME280;36461;52.018;21.036;2023-12-28T09:59:05;100053.00;;;6.49;81.94
35507;BME280;36461;52.018;21.036;2023-12-28T10:01:34;100054.24;;;6.55;81.77
35507;BME280;36461;52.018;21.036;2023-12-28T10:04:03;100063.90;;;6.62;82.00
35507;BME280;36461;52.018;21.036;2023-12-28T10:06:32;100066.75;;;6.73;82.00
35507;BME280;36461;52.018;21.036;2023-12-28T10:09:00;100066.84;;;6.85;81.70
35507;BME280;36461;52.018;21.036;2023-12-28T10:11:28;100067.30;;;6.96;81.21
35507;BME280;36461;52.018;21.036;2023-12-28T10:13:58;100062.80;;;7.04;80.81
35507;BME280;36461;52.018;21.036;2023-12-28T10:16:26;100057.70;;;7.09;80.50
35507;BME280;36461;52.018;21.036;2023-12-28T10:18:55;100067.71;;;7.08;80.41
35507;BME280;36461;52.018;21.036;2023-12-28T10:21:24;100074.80;;;7.07;80.02
35507;BME280;36461;52.018;21.036;2023-12-28T10:23:52;100071.70;;;7.07;80.27
35507;BME280;36461;52.018;21.036;2023-12-28T10:26:21;100074.63;;;7.06;80.03
35507;BME280;36461;52.018;21.036;2023-12-28T10:28:49;100073.39;;;7.09;80.17
35507;BME280;36461;52.018;21.036;2023-12-28T10:31:17;100071.10;;;7.10;79.89
35507;BME280;36461;52.018;21.036;2023-12-28T10:33:45;100069.27;;;7.15;79.68
35507;BME280;36461;52.018;21.036;2023-12-28T10:36:14;100064.55;;;7.25;79.62
35507;BME280;36461;52.018;21.036;2023-12-28T10:38:43;100054.08;;;7.39;79.46
35507;BME280;36461;52.018;21.036;2023-12-28T10:41:13;100056.45;;;7.48;79.25
35507;BME280;36461;52.018;21.036;2023-12-28T10:43:48;100056.55;;;7.50;78.89
35507;BME280;36461;52.018;21.036;2023-12-28T10:46:25;100053.99;;;7.57;78.99
35507;BME280;36461;52.018;21.036;2023-12-28T10:48:59;100055.30;;;7.59;78.36
35507;BME280;36461;52.018;21.036;2023-12-28T10:51:28;100058.16;;;7.61;78.62
35507;BME280;36461;52.018;21.036;2023-12-28T10:56:44;100061.02;;;7.65;78.21
35507;BME280;36461;52.018;21.036;2023-12-28T10:59:44;100061.03;;;7.64;77.72
35507;BME280;36461;52.018;21.036;2023-12-28T11:02:16;100057.73;;;7.65;77.72
35507;BME280;36461;52.018;21.036;2023-12-28T11:04:50;100058.88;;;7.68;77.83
35507;BME280;36461;52.018;21.036;2023-12-28T11:07:21;100051.71;;;7.71;77.90
35507;BME280;36461;52.018;21.036;2023-12-28T11:09:49;100049.77;;;7.74;77.74
35507;BME280;36461;52.018;21.036;2023-12-28T11:12:19;100051.71;;;7.78;77.86
35507;BME280;36461;52.018;21.036;2023-12-28T11:14:48;100051.98;;;7.81;77.66
35507;BME280;36461;52.018;21.036;2023-12-28T11:17:19;100058.48;;;7.83;77.27
35507;BME280;36461;52.018;21.036;2023-12-28T11:19:48;100064.16;;;7.83;77.32
35507;BME280;36461;52.018;21.036;2023-12-28T11:22:18;100064.48;;;7.84;77.51
35507;BME280;36461;52.018;21.036;2023-12-28T11:24:46;100064.60;;;7.86;77.64
35507;BME280;36461;52.018;21.036;2023-12-28T11:27:15;100071.28;;;7.87;77.51
35507;BME280;36461;52.018;21.036;2023-12-28T11:29:44;100066.16;;;7.85;77.26
35507;BME280;36461;52.018;21.036;2023-12-28T11:32:13;100068.81;;;7.83;77.39
35507;BME280;36461;52.018;21.036;2023-12-28T11:34:41;100066.71;;;7.84;77.35
35507;BME280;36461;52.018;21.036;2023-12-28T11:37:13;100068.16;;;7.82;77.06
35507;BME280;36461;52.018;21.036;2023-12-28T11:39:48;100068.14;;;7.82;77.73
35507;BME280;36461;52.018;21.036;2023-12-28T11:42:20;100065.96;;;7.87;77.50
35507;BME280;36461;52.018;21.036;2023-12-28T11:44:55;100066.79;;;7.88;77.49
35507;BME280;36461;52.018;21.036;2023-12-28T11:47:25;100072.68;;;7.86;77.29
35507;BME280;36461;52.018;21.036;2023-12-28T11:49:55;100070.05;;;7.82;77.64
35507;BME280;36461;52.018;21.036;2023-12-28T11:52:33;100065.08;;;7.80;77.76
35507;BME280;36461;52.018;21.036;2023-12-28T11:55:05;100065.12;;;7.79;77.74
35507;BME280;36461;52.018;21.036;2023-12-28T11:57:36;100065.29;;;7.79;78.06
35507;BME280;36461;52.018;21.036;2023-12-28T12:00:06;100067.69;;;7.80;78.24
35507;BME280;36461;52.018;21.036;2023-12-28T12:02:42;100064.19;;;7.82;78.12
35507;BME280;36461;52.018;21.036;2023-12-28T12:05:16;100061.60;;;7.82;78.38
35507;BME280;36461;52.018;21.036;2023-12-28T12:07:49;100053.52;;;7.87;78.37
35507;BME280;36461;52.018;21.036;2023-12-28T12:10:19;100054.66;;;7.91;78.27
35507;BME280;36461;52.018;21.036;2023-12-28T12:12:54;100052.02;;;7.93;78.10
35507;BME280;36461;52.018;21.036;2023-12-28T12:15:27;100048.70;;;7.95;78.06
35507;BME280;36461;52.018;21.036;2023-12-28T12:18:00;100049.52;;;7.96;78.14
35507;BME280;36461;52.018;21.036;2023-12-28T12:20:33;100043.47;;;7.97;78.04
35507;BME280;36461;52.018;21.036;2023-12-28T12:23:05;100038.60;;;7.98;77.81
35507;BME280;36461;52.018;21.036;2023-12-28T12:25:37;100040.98;;;7.99;77.97
35507;BME280;36461;52.018;21.036;2023-12-28T12:28:08;100042.09;;;8.03;77.87
35507;BME280;36461;52.018;21.036;2023-12-28T12:30:39;100039.11;;;8.05;77.91
35507;BME280;36461;52.018;21.036;2023-12-28T12:33:11;100033.06;;;8.05;77.88
35507;BME280;36461;52.018;21.036;2023-12-28T12:35:43;100034.89;;;8.08;77.84
35507;BME280;36461;52.018;21.036;2023-12-28T12:38:13;100035.46;;;8.13;77.99
35507;BME280;36461;52.018;21.036;2023-12-28T12:40:45;100037.45;;;8.15;77.82
35507;BME280;36461;52.018;21.036;2023-12-28T12:43:15;100042.58;;;8.17;77.78
35507;BME280;36461;52.018;21.036;2023-12-28T12:45:48;100042.70;;;8.19;77.81
35507;BME280;36461;52.018;21.036;2023-12-28T12:48:19;100035.80;;;8.19;78.02
35507;BME280;36461;52.018;21.036;2023-12-28T12:50:49;100025.16;;;8.17;77.79
35507;BME280;36461;52.018;21.036;2023-12-28T12:53:20;100028.70;;;8.20;77.87
35507;BME280;36461;52.018;21.036;2023-12-28T12:55:55;100030.84;;;8.24;78.09
35507;BME280;36461;52.018;21.036;2023-12-28T12:58:26;100040.59;;;8.27;77.87
35507;BME280;36461;52.018;21.036;2023-12-28T13:08:31;100036.26;;;8.34;77.49
35507;BME280;36461;52.018;21.036;2023-12-28T13:11:00;100028.30;;;8.34;77.53
35507;BME280;36461;52.018;21.036;2023-12-28T13:13:28;100033.52;;;8.33;77.59
35507;BME280;36461;52.018;21.036;2023-12-28T13:15:56;100036.17;;;8.30;77.54
35507;BME280;36461;52.018;21.036;2023-12-28T13:18:24;100038.63;;;8.29;77.70
35507;BME280;36461;52.018;21.036;2023-12-28T13:20:53;100030.73;;;8.28;77.68
35507;BME280;36461;52.018;21.036;2023-12-28T13:23:21;100030.04;;;8.28;77.66
35507;BME280;36461;52.018;21.036;2023-12-28T13:25:49;100032.10;;;8.28;77.83
35507;BME280;36461;52.018;21.036;2023-12-28T13:28:17;100030.71;;;8.29;77.80